Terminal Aerodrome Forecast
Issued by NWS Buffalo, NY

Home | Current Version | Previous Version | Text Only | Print | Product List | Glossary On
Versions: 1 2 3 4 5 6 7 8 9 10 11 12 13 14 15 16 17 18 19 20 21 22 23 24 25
000
FTUS41 KBUF 311100
TAFROC
TAF
KROC 311120Z 3112/0112 21006KT P6SM BKN060 OVC100
     FM311400 21005KT P6SM VCSH BKN060 BKN150
     FM311700 24005KT P6SM VCTS BKN035CB OVC200
     FM311800 25006KT P6SM BKN035
     FM010200 22006KT P6SM SCT035 SCT100=

USA.gov is the U.S. government's official web portal to all federal, state and local government web resources and services.